Olamon, Maine
Current Conditions -  °F | °C
As of 2:53 PM on Friday 28 Nov 2014 (Local Time) from KBGR Reporting Station
Broken Clouds Broken Clouds  
Wind Chill: 18°   Ceiling: 5500
Heat Index: 24°   Visibility: 10mi
Dew Point: 16°   Wind: 5mph
Humidity: 71%   Direction: 310°NW
Pressure: 30.02"   Gusts: NA
Location:  45.12°N, 68.6°W
Report Text: KBGR 281953Z 31004KT 10SM BKN055 BKN070 BKN200 M04/M09 A3002 RMK AO2 SLP170 T10441089
Loading
Personal Weather Stations






























Interactive Weather Map New forecast layout! Learn more

10-Day Weather Forecast

Advertisements
Track Severe Weather on mobile